Time;durP1;ratioP1;P1;durP2;ratioP2;P2;SDS_P1;SDS_P2;PMS_P1;PMS_P2;Temp;Humidity;BMP_temperature;BMP_pressure;BME280_temperature;BME280_humidity;BME280_pressure;Samples;Min_cycle;Max_cycle;Signal;HPM_P1;HPM_P2
2022/05/12 00:01:44;;;;;;;10.28;7.70;;;26.50;99.90;;;;;;1798454;78;22249;-79
2022/05/12 00:04:15;;;;;;;14.10;7.72;;;26.70;99.90;;;;;;1778588;78;21130;-81
2022/05/12 00:06:46;;;;;;;8.18;7.37;;;26.50;99.90;;;;;;1756917;79;21336;-80
2022/05/12 00:09:17;;;;;;;10.40;8.25;;;26.70;99.90;;;;;;1765680;79;21104;-80
2022/05/12 00:11:49;;;;;;;11.08;8.98;;;26.50;99.90;;;;;;1775572;79;21182;-80
2022/05/12 00:14:20;;;;;;;10.28;8.68;;;26.60;99.90;;;;;;1773108;79;21241;-80
2022/05/12 00:16:52;;;;;;;11.95;9.03;;;26.70;99.90;;;;;;1767872;79;21198;-80
2022/05/12 00:19:23;;;;;;;20.40;9.08;;;26.60;99.90;;;;;;1775775;78;21254;-81
2022/05/12 00:21:55;;;;;;;14.28;9.25;;;26.60;99.90;;;;;;1780997;78;21724;-80
2022/05/12 00:24:26;;;;;;;12.73;8.68;;;26.80;99.90;;;;;;1784688;77;21188;-80
2022/05/12 00:26:57;;;;;;;15.53;8.93;;;26.90;99.90;;;;;;1737629;80;21100;-80
2022/05/12 00:29:28;;;;;;;13.08;9.85;;;26.70;99.90;;;;;;1761380;79;21265;-79
2022/05/12 00:31:59;;;;;;;15.15;10.70;;;26.80;99.90;;;;;;1775764;78;21548;-80
2022/05/12 00:34:30;;;;;;;12.63;9.20;;;26.90;99.90;;;;;;1777782;78;21175;-80
2022/05/12 00:37:01;;;;;;;13.08;9.50;;;26.90;99.90;;;;;;1783422;78;21239;-80
2022/05/12 00:39:31;;;;;;;14.93;9.55;;;27.00;99.90;;;;;;1792065;78;21594;-79
2022/05/12 00:42:03;;;;;;;14.28;10.13;;;26.90;99.90;;;;;;1766415;79;21246;-80
2022/05/12 00:44:34;;;;;;;12.43;8.88;;;26.90;99.90;;;;;;1772072;78;21352;-80
2022/05/12 00:47:05;;;;;;;15.75;10.55;;;27.10;99.90;;;;;;1782199;78;21159;-79
2022/05/12 00:49:40;;;;;;;20.25;9.78;;;27.00;99.90;;;;;;1788162;77;21182;-79
2022/05/12 00:52:11;;;;;;;10.88;8.98;;;27.00;99.90;;;;;;1781752;78;21179;-80
2022/05/12 00:54:45;;;;;;;12.20;9.08;;;27.00;99.90;;;;;;1779882;78;21127;-80
2022/05/12 00:57:18;;;;;;;10.08;8.48;;;27.10;99.90;;;;;;1756329;79;21178;-80
2022/05/12 00:59:49;;;;;;;18.25;9.08;;;27.10;99.90;;;;;;1747396;80;21206;-82
2022/05/12 01:02:21;;;;;;;10.75;8.95;;;27.10;99.90;;;;;;1761964;77;21714;-81
2022/05/12 01:04:54;;;;;;;15.15;9.70;;;27.20;99.90;;;;;;1750850;79;21294;-81
2022/05/12 01:07:26;;;;;;;12.65;9.23;;;27.20;99.90;;;;;;1757858;80;21649;-79
2022/05/12 01:09:57;;;;;;;11.33;9.60;;;27.30;99.90;;;;;;1756309;79;21207;-80
2022/05/12 01:12:29;;;;;;;12.65;9.15;;;27.40;99.90;;;;;;1768970;78;21322;-80
2022/05/12 01:15:02;;;;;;;13.80;8.20;;;27.40;99.90;;;;;;1764920;78;21271;-80
2022/05/12 01:17:38;;;;;;;13.30;9.83;;;27.40;99.90;;;;;;1753320;78;21164;-80
2022/05/12 01:20:13;;;;;;;16.07;9.05;;;27.50;99.90;;;;;;1779581;78;21252;-80
2022/05/12 01:22:46;;;;;;;12.23;9.43;;;27.40;99.90;;;;;;1778524;78;21233;-71
2022/05/12 01:25:20;;;;;;;11.53;8.55;;;27.40;99.90;;;;;;1780336;77;21172;-72
2022/05/12 01:27:51;;;;;;;11.18;9.00;;;27.60;99.90;;;;;;1775959;78;21167;-71
2022/05/12 01:30:25;;;;;;;15.13;9.48;;;27.70;99.90;;;;;;1777373;78;21191;-71
2022/05/12 01:32:56;;;;;;;10.75;8.73;;;27.70;99.90;;;;;;1779644;78;21153;-71
2022/05/12 01:35:27;;;;;;;10.50;9.40;;;27.60;99.90;;;;;;1777368;78;21618;-71
2022/05/12 01:37:58;;;;;;;12.18;9.45;;;27.70;99.90;;;;;;1770418;78;21704;-71
2022/05/12 01:40:29;;;;;;;10.53;9.48;;;27.80;99.90;;;;;;1784647;78;21211;-71
2022/05/12 01:42:59;;;;;;;11.40;9.03;;;27.80;99.90;;;;;;1786604;78;21663;-70
2022/05/12 01:45:31;;;;;;;11.55;10.00;;;27.80;99.90;;;;;;1777964;78;21673;-70
2022/05/12 01:48:03;;;;;;;10.75;9.65;;;27.90;99.90;;;;;;1783087;78;21166;-70
2022/05/12 01:50:36;;;;;;;11.85;9.45;;;28.00;99.90;;;;;;1777150;77;21685;-71
2022/05/12 01:53:09;;;;;;;10.68;9.55;;;28.20;99.90;;;;;;1766411;78;21696;-71
2022/05/12 01:55:43;;;;;;;13.48;9.25;;;28.10;99.90;;;;;;1739033;80;21707;-71
2022/05/12 01:58:14;;;;;;;11.18;9.33;;;28.20;99.90;;;;;;1752216;79;21128;-72
2022/05/12 02:00:45;;;;;;;14.07;11.45;;;28.20;99.90;;;;;;1775580;77;21740;-71
2022/05/12 02:03:17;;;;;;;12.78;9.33;;;28.30;99.90;;;;;;1775981;78;21689;-70
2022/05/12 02:05:48;;;;;;;11.05;9.23;;;28.30;99.90;;;;;;1767799;78;21246;-72
2022/05/12 02:08:20;;;;;;;10.35;9.15;;;28.30;99.90;;;;;;1759597;80;21701;-71
2022/05/12 02:10:53;;;;;;;13.88;9.25;;;28.30;99.90;;;;;;1746477;80;21226;-71
2022/05/12 02:13:26;;;;;;;11.88;9.53;;;28.50;99.90;;;;;;1710194;81;21775;-71
2022/05/12 02:15:58;;;;;;;17.25;9.33;;;28.40;99.90;;;;;;1731256;80;21220;-71
2022/05/12 02:18:29;;;;;;;12.90;10.00;;;28.60;99.90;;;;;;1717288;81;21132;-70
2022/05/12 02:21:00;;;;;;;9.80;8.48;;;28.60;99.90;;;;;;1747194;79;21170;-70
2022/05/12 02:23:32;;;;;;;11.60;8.40;;;28.70;99.90;;;;;;1754179;80;21186;-70
2022/05/12 02:26:03;;;;;;;11.18;7.90;;;28.90;99.90;;;;;;1709510;81;21695;-71
2022/05/12 02:28:34;;;;;;;9.43;8.30;;;29.10;99.90;;;;;;1748178;80;21658;-71
2022/05/12 02:31:05;;;;;;;10.40;8.00;;;29.30;99.90;;;;;;1747245;80;21701;-71
2022/05/12 02:33:38;;;;;;;9.78;8.20;;;29.30;99.90;;;;;;1749094;79;22453;-72
2022/05/12 02:36:08;;;;;;;12.70;8.45;;;29.60;99.90;;;;;;1743257;79;21260;-71
2022/05/12 02:38:44;;;;;;;;;;;29.70;99.90;;;;;;1762171;80;21099;-71
2022/05/12 02:41:15;;;;;;;10.98;8.00;;;29.90;99.90;;;;;;1748904;78;20177;-73
2022/05/12 02:43:46;;;;;;;9.00;8.10;;;30.00;99.90;;;;;;1750856;80;21252;-73
2022/05/12 02:46:17;;;;;;;12.25;7.62;;;30.10;99.90;;;;;;1748483;80;21175;-73
2022/05/12 02:48:50;;;;;;;11.80;7.78;;;30.10;99.90;;;;;;1731373;81;21132;-72
2022/05/12 02:51:21;;;;;;;7.95;7.03;;;30.30;99.90;;;;;;1733380;81;21204;-71
2022/05/12 02:53:52;;;;;;;10.32;7.37;;;30.30;99.90;;;;;;1727511;80;21661;-73
2022/05/12 02:56:23;;;;;;;9.05;7.65;;;30.40;99.90;;;;;;1777244;77;21693;-73
2022/05/12 02:58:54;;;;;;;10.05;7.55;;;30.40;99.90;;;;;;1748236;80;21734;-73
2022/05/12 03:01:25;;;;;;;8.30;7.08;;;30.50;99.90;;;;;;1745240;79;21450;-72
2022/05/12 03:03:56;;;;;;;10.20;7.87;;;30.50;99.90;;;;;;1742971;80;21112;-73
2022/05/12 03:06:28;;;;;;;8.60;7.70;;;30.60;99.90;;;;;;1791430;78;21651;-73
2022/05/12 03:08:59;;;;;;;11.90;8.45;;;30.70;99.90;;;;;;1782022;78;21663;-73
2022/05/12 03:11:30;;;;;;;8.88;7.90;;;30.80;99.90;;;;;;1787265;78;21183;-74
2022/05/12 03:14:03;;;;;;;9.50;7.28;;;31.00;99.90;;;;;;1792917;78;21624;-73
2022/05/12 03:16:34;;;;;;;9.68;7.80;;;30.90;99.90;;;;;;1786781;77;21634;-73
2022/05/12 03:19:05;;;;;;;8.45;7.65;;;30.90;99.90;;;;;;1782824;78;21688;-73
2022/05/12 03:21:36;;;;;;;11.38;8.05;;;31.10;99.90;;;;;;1787407;78;21744;-73
2022/05/12 03:24:09;;;;;;;9.00;7.50;;;30.90;99.90;;;;;;1787485;77;21273;-72
2022/05/12 03:26:40;;;;;;;10.88;8.88;;;30.80;99.90;;;;;;1798358;78;21274;-72
2022/05/12 03:29:11;;;;;;;9.53;7.78;;;30.90;99.90;;;;;;1773985;78;21515;-72
2022/05/12 03:31:43;;;;;;;8.40;7.12;;;30.80;99.90;;;;;;1767301;79;21658;-73
2022/05/12 03:34:14;;;;;;;7.55;6.05;;;30.80;99.90;;;;;;1774403;79;21799;-72
2022/05/12 03:36:45;;;;;;;8.10;7.30;;;30.50;99.90;;;;;;1787291;77;21186;-73
2022/05/12 03:39:16;;;;;;;7.80;6.83;;;30.70;99.90;;;;;;1799587;78;21664;-73
2022/05/12 03:41:50;;;;;;;10.13;7.67;;;30.50;99.90;;;;;;1797244;78;21173;-72
2022/05/12 03:46:56;;;;;;;8.08;7.28;;;30.80;99.90;;;;;;1789260;78;21150;-73
2022/05/12 03:49:27;;;;;;;9.45;7.67;;;30.80;99.90;;;;;;1770374;80;21770;-74
2022/05/12 03:52:00;;;;;;;8.10;7.30;;;30.70;99.90;;;;;;1772194;80;21179;-73
2022/05/12 03:54:31;;;;;;;8.40;7.45;;;30.70;99.90;;;;;;1771423;79;21197;-73
2022/05/12 03:57:03;;;;;;;8.00;7.17;;;30.60;99.90;;;;;;1760949;79;21861;-73
2022/05/12 03:59:38;;;;;;;8.60;7.75;;;30.50;99.90;;;;;;1783915;77;21178;-72
2022/05/12 04:02:13;;;;;;;9.95;8.00;;;30.60;99.90;;;;;;1786799;78;21638;-73
2022/05/12 04:04:46;;;;;;;8.87;6.60;;;30.50;99.90;;;;;;1803186;78;21587;-72
2022/05/12 04:07:19;;;;;;;9.18;6.92;;;30.60;99.90;;;;;;1784197;78;21257;-72
2022/05/12 04:09:51;;;;;;;6.92;5.80;;;30.80;99.90;;;;;;1781342;78;21211;-72
2022/05/12 04:12:22;;;;;;;5.65;4.78;;;30.80;99.90;;;;;;1782292;78;21154;-71
2022/05/12 04:14:53;;;;;;;5.58;4.55;;;30.90;99.90;;;;;;1764175;79;21116;-71
2022/05/12 04:17:24;;;;;;;6.42;5.05;;;30.90;99.90;;;;;;1796073;77;21180;-71
2022/05/12 04:19:54;;;;;;;6.45;5.45;;;31.00;99.90;;;;;;1785562;78;21182;-71
2022/05/12 04:22:25;;;;;;;7.90;6.08;;;31.20;99.90;;;;;;1772502;78;21262;-71
2022/05/12 04:24:56;;;;;;;7.17;5.60;;;31.40;99.90;;;;;;1772698;79;21209;-71
2022/05/12 04:27:27;;;;;;;5.80;5.25;;;31.30;99.90;;;;;;1774083;78;21640;-72
2022/05/12 04:29:58;;;;;;;8.18;5.87;;;31.20;99.90;;;;;;1764422;79;22266;-73
2022/05/12 04:32:30;;;;;;;6.28;5.10;;;31.50;99.90;;;;;;1785369;78;21513;-73
2022/05/12 04:35:12;;;;;;;8.43;5.80;;;31.40;99.90;;;;;;1771229;78;21162;-73
2022/05/12 04:37:35;;;;;;;6.42;5.53;;;31.50;99.90;;;;;;1765703;79;21661;-72
2022/05/12 04:40:17;;;;;;;8.65;5.80;;;31.60;99.90;;;;;;1779041;78;21184;-72
2022/05/12 04:42:50;;;;;;;9.00;5.78;;;31.70;99.90;;;;;;1846440;76;21190;-73
2022/05/12 04:45:24;;;;;;;5.55;5.05;;;31.70;99.90;;;;;;1851997;76;21649;-73
2022/05/12 04:47:55;;;;;;;6.47;5.20;;;32.00;99.90;;;;;;1877026;74;21141;-73
2022/05/12 04:50:30;;;;;;;5.17;4.58;;;31.90;99.90;;;;;;1889493;75;21580;-73
2022/05/12 04:53:03;;;;;;;5.50;4.65;;;31.80;99.90;;;;;;1883220;74;21162;-73
2022/05/12 04:55:34;;;;;;;7.03;5.28;;;31.80;99.90;;;;;;1865913;74;21179;-72
2022/05/12 04:58:05;;;;;;;6.47;5.45;;;31.70;99.90;;;;;;1868551;75;21131;-73
2022/05/12 05:00:40;;;;;;;7.83;4.50;;;31.80;99.90;;;;;;1881280;74;21156;-73
2022/05/12 05:03:12;;;;;;;6.65;5.95;;;32.00;99.90;;;;;;1877090;75;21588;-72
2022/05/12 05:05:45;;;;;;;6.87;4.50;;;32.10;99.90;;;;;;1878546;75;21133;-70
2022/05/12 05:08:19;;;;;;;5.30;4.80;;;;;;;;;;1878452;74;21242;-69
2022/05/12 05:10:56;;;;;;;4.95;4.45;;;;;;;;;;1848972;75;21159;-70
2022/05/12 05:13:26;;;;;;;5.65;5.05;;;;;;;;;;1827008;76;21244;-69
2022/05/12 05:16:02;;;;;;;4.92;4.50;;;;;;;;;;1809841;78;21155;-70
2022/05/12 05:18:38;;;;;;;5.25;4.72;;;;;;;;;;1890031;74;21226;-70
2022/05/12 05:21:10;;;;;;;5.90;5.30;;;;;;;;;;1875518;75;21146;-71
2022/05/12 05:23:46;;;;;;;8.58;5.00;;;;;;;;;;1825532;75;21148;-69
2022/05/12 05:26:19;;;;;;;6.50;4.95;;;;;;;;;;1828219;76;21158;-69
2022/05/12 05:28:56;;;;;;;7.20;5.70;;;;;;;;;;1817125;77;21176;-70
2022/05/12 05:31:31;;;;;;;7.95;4.95;;;;;;;;;;1839381;76;21928;-71
2022/05/12 05:34:09;;;;;;;7.33;6.10;;;;;;;;;;1817496;77;21145;-71
2022/05/12 05:36:45;;;;;;;6.58;4.80;;;;;;;;;;1844500;76;21207;-71
2022/05/12 05:39:21;;;;;;;7.70;6.50;;;;;;;;;;1850505;75;21183;-71
2022/05/12 05:42:00;;;;;;;6.95;5.03;;;;;;;;;;1826425;77;21653;-71
2022/05/12 05:44:32;;;;;;;7.95;6.08;;;;;;;;;;1827927;75;21184;-71
2022/05/12 05:47:08;;;;;;;9.45;5.40;;;;;;;;;;1838763;76;21165;-71
2022/05/12 05:49:44;;;;;;;6.58;5.85;;;;;;;;;;1829225;76;21253;-71
2022/05/12 05:54:53;;;;;;;9.30;6.15;;;;;;;;;;1823119;76;21258;-71
2022/05/12 05:57:30;;;;;;;7.33;5.92;;;;;;;;;;1838041;76;21723;-69
2022/05/12 06:00:06;;;;;;;10.55;6.17;;;;;;;;;;1864006;75;21270;-68
2022/05/12 06:02:40;;;;;;;11.55;6.10;;;;;;;;;;1856362;74;21195;-70
2022/05/12 06:05:17;;;;;;;5.35;4.85;;;;;;;;;;1853569;75;21224;-70
2022/05/12 06:07:47;;;;;;;6.83;4.92;;;;;;;;;;1856689;75;21179;-73
2022/05/12 06:10:17;;;;;;;5.95;5.20;;;;;;;;;;1878075;74;21177;-70
2022/05/12 06:12:49;;;;;;;5.15;4.25;;;32.40;91.40;;;;;;1867719;76;21532;-72
2022/05/12 06:15:19;;;;;;;3.37;3.05;;;32.40;90.40;;;;;;1872030;75;21251;-71
2022/05/12 06:17:50;;;;;;;4.33;3.12;;;32.40;87.60;;;;;;1853276;76;21616;-71
2022/05/12 06:20:23;;;;;;;2.98;2.67;;;32.40;85.40;;;;;;1855824;76;21680;-71
2022/05/12 06:22:54;;;;;;;2.98;2.25;;;32.40;86.80;;;;;;1858052;74;21205;-71
2022/05/12 06:25:25;;;;;;;2.55;1.90;;;32.30;84.40;;;;;;1859671;75;21177;-70
2022/05/12 06:27:56;;;;;;;3.58;2.30;;;32.30;84.80;;;;;;1892015;74;21581;-70
2022/05/12 06:30:29;;;;;;;3.22;1.62;;;32.30;82.50;;;;;;1871102;74;21166;-69
2022/05/12 06:33:00;;;;;;;2.60;2.08;;;32.20;81.30;;;;;;1858728;75;21668;-70
2022/05/12 06:35:32;;;;;;;3.00;1.85;;;32.20;82.90;;;;;;1854542;75;21667;-70
2022/05/12 06:38:02;;;;;;;4.45;2.20;;;32.30;84.20;;;;;;1863048;75;22296;-71
2022/05/12 06:40:34;;;;;;;2.95;2.65;;;32.30;83.20;;;;;;1839695;75;21122;-69
2022/05/12 06:43:07;;;;;;;4.28;2.90;;;32.40;85.30;;;;;;1831447;74;21128;-70
2022/05/12 06:45:42;;;;;;;3.85;2.90;;;32.30;85.20;;;;;;1817899;78;21661;-69
2022/05/12 06:48:13;;;;;;;4.37;3.55;;;32.30;86.30;;;;;;1807441;77;21225;-70
2022/05/12 06:50:44;;;;;;;7.83;4.30;;;32.20;86.70;;;;;;1804742;78;21208;-70
2022/05/12 06:53:15;;;;;;;5.03;3.65;;;32.20;87.20;;;;;;1824670;75;21125;-70
2022/05/12 06:55:47;;;;;;;4.65;3.87;;;32.20;87.50;;;;;;1874071;75;21201;-70
2022/05/12 06:58:18;;;;;;;5.28;4.03;;;32.20;88.30;;;;;;1889902;75;21128;-71
2022/05/12 07:00:49;;;;;;;7.15;3.92;;;32.20;89.00;;;;;;1839099;77;21247;-71
2022/05/12 07:03:20;;;;;;;6.15;4.50;;;32.20;90.00;;;;;;1867182;75;21162;-71
2022/05/12 07:05:51;;;;;;;5.33;4.80;;;32.20;90.20;;;;;;1873151;74;21210;-71
2022/05/12 07:08:26;;;;;;;6.97;4.45;;;32.20;90.80;;;;;;1872618;75;21681;-70
2022/05/12 07:10:58;;;;;;;8.38;4.85;;;32.20;90.30;;;;;;1871783;75;21631;-70
2022/05/12 07:13:31;;;;;;;7.55;4.67;;;32.20;90.50;;;;;;1855886;74;21198;-69
2022/05/12 07:16:04;;;;;;;5.85;4.85;;;32.10;91.40;;;;;;1863076;76;21116;-69
2022/05/12 07:18:38;;;;;;;;;;;32.10;91.60;;;;;;1860648;75;21479;-70
2022/05/12 07:26:40;;;;;;;5.58;4.75;;;32.00;91.60;;;;;;1902953;73;21454;-70
2022/05/12 07:29:09;;;;;;;6.15;4.25;;;32.00;91.30;;;;;;1900115;73;21287;-71
2022/05/12 07:31:41;;;;;;;6.90;4.35;;;32.00;91.10;;;;;;1910901;73;21189;-70
2022/05/12 07:34:14;;;;;;;5.17;3.27;;;32.00;90.80;;;;;;1887904;73;21496;-70
2022/05/12 07:36:47;;;;;;;4.83;3.10;;;32.10;90.10;;;;;;1928630;71;21135;-70
2022/05/12 07:39:22;;;;;;;5.33;2.90;;;32.10;88.80;;;;;;1910631;72;21099;-71
2022/05/12 07:41:53;;;;;;;4.03;2.30;;;32.20;87.30;;;;;;1896697;73;21263;-71
2022/05/12 07:44:32;;;;;;;3.62;2.52;;;32.20;87.40;;;;;;1846706;76;21598;-72
2022/05/12 07:46:57;;;;;;;3.12;2.20;;;32.20;87.40;;;;;;1810805;76;21540;-72
2022/05/12 07:49:31;;;;;;;5.50;2.60;;;32.20;86.20;;;;;;1871090;74;21151;-71
2022/05/12 07:52:02;;;;;;;5.33;2.80;;;32.20;88.20;;;;;;1838146;76;21226;-71
2022/05/12 07:54:34;;;;;;;7.45;3.08;;;32.20;86.70;;;;;;1832512;76;21170;-71
2022/05/12 07:57:05;;;;;;;3.75;2.87;;;32.10;86.70;;;;;;1928095;72;21131;-71
2022/05/12 07:59:37;;;;;;;5.90;3.12;;;32.10;87.20;;;;;;1895483;73;21114;-71
2022/05/12 08:02:09;;;;;;;5.33;2.92;;;32.00;87.90;;;;;;1917358;72;21985;-71
2022/05/12 08:04:40;;;;;;;4.12;2.77;;;32.00;86.90;;;;;;1898240;73;21172;-69
2022/05/12 08:07:11;;;;;;;3.20;2.40;;;31.90;86.00;;;;;;1899929;72;21604;-71
2022/05/12 08:09:43;;;;;;;4.78;2.83;;;31.90;86.10;;;;;;1907771;72;21169;-71
2022/05/12 08:12:16;;;;;;;4.28;2.50;;;31.90;86.40;;;;;;1914776;72;21170;-71
2022/05/12 08:14:47;;;;;;;3.47;2.60;;;31.90;85.80;;;;;;1925517;73;21159;-72
2022/05/12 08:17:18;;;;;;;3.92;2.47;;;31.80;86.00;;;;;;1918103;73;21213;-71
2022/05/12 08:19:49;;;;;;;4.80;3.35;;;31.80;88.00;;;;;;1907286;73;21772;-70
2022/05/12 08:22:20;;;;;;;4.78;2.90;;;31.80;86.70;;;;;;1917199;72;21599;-71
2022/05/12 08:24:51;;;;;;;5.67;2.80;;;31.80;86.80;;;;;;1887042;74;21076;-71
2022/05/12 08:27:24;;;;;;;4.65;2.42;;;31.80;87.70;;;;;;1908894;73;21063;-71
2022/05/12 08:29:54;;;;;;;5.45;2.90;;;31.80;86.50;;;;;;1911597;71;21187;-69
2022/05/12 08:32:22;;;;;;;3.12;2.50;;;31.70;86.00;;;;;;1932786;72;21163;-70
2022/05/12 08:34:53;;;;;;;4.30;2.40;;;31.70;86.20;;;;;;1914706;73;21640;-70
2022/05/12 08:37:24;;;;;;;6.10;2.80;;;31.60;86.20;;;;;;1921286;73;21284;-70
2022/05/12 08:39:56;;;;;;;3.40;2.50;;;31.60;86.80;;;;;;1905127;72;21307;-71
2022/05/12 08:44:59;;;;;;;5.67;3.72;;;31.60;87.50;;;;;;1901146;73;21177;-71
2022/05/12 08:47:34;;;;;;;8.48;3.17;;;31.60;87.90;;;;;;1904678;74;22457;-71
2022/05/12 08:50:04;;;;;;;4.53;3.20;;;31.60;88.00;;;;;;1933401;73;21647;-71
2022/05/12 08:52:35;;;;;;;4.25;3.62;;;31.60;88.60;;;;;;1901850;73;21189;-72
2022/05/12 08:55:06;;;;;;;5.12;3.80;;;31.60;89.00;;;;;;1929064;73;21201;-72
2022/05/12 08:57:39;;;;;;;7.58;4.40;;;31.50;89.40;;;;;;1904234;73;21186;-72
2022/05/12 09:00:13;;;;;;;4.72;4.22;;;31.50;89.60;;;;;;1907623;73;21134;-71
2022/05/12 09:02:46;;;;;;;7.08;4.70;;;31.50;89.90;;;;;;1904727;74;21177;-71
2022/05/12 09:05:19;;;;;;;6.37;4.33;;;31.50;89.90;;;;;;1909378;73;21697;-71
2022/05/12 09:07:53;;;;;;;5.47;4.35;;;31.50;90.00;;;;;;1907158;73;21174;-72
2022/05/12 09:10:24;;;;;;;9.23;4.40;;;31.50;90.10;;;;;;1914704;73;21134;-72
2022/05/12 09:12:53;;;;;;;5.62;4.50;;;31.40;90.10;;;;;;1920572;72;21215;-72
2022/05/12 09:15:23;;;;;;;6.00;3.80;;;31.40;90.20;;;;;;1912974;73;21222;-71
2022/05/12 09:17:54;;;;;;;8.68;5.42;;;31.40;90.30;;;;;;1887196;74;21151;-72
2022/05/12 09:20:27;;;;;;;6.62;4.80;;;31.40;90.70;;;;;;1916957;73;21123;-72
2022/05/12 09:23:01;;;;;;;7.55;4.35;;;31.20;92.00;;;;;;1904552;73;21084;-72
2022/05/12 09:25:34;;;;;;;8.28;4.40;;;30.90;92.90;;;;;;1897602;73;21182;-71
2022/05/12 09:28:12;;;;;;;8.28;4.40;;;30.50;93.70;;;;;;1908231;73;21728;-71
2022/05/12 09:30:42;;;;;;;6.70;3.92;;;30.20;95.00;;;;;;1899087;72;21187;-71
2022/05/12 09:33:14;;;;;;;7.80;4.62;;;29.90;96.20;;;;;;1922863;73;21666;-71
2022/05/12 09:35:48;;;;;;;14.40;6.33;;;29.70;97.20;;;;;;1934996;72;21132;-71
2022/05/12 09:38:22;;;;;;;10.20;4.45;;;29.50;98.30;;;;;;1910961;72;21129;-72
2022/05/12 09:40:55;;;;;;;14.78;5.17;;;29.20;98.50;;;;;;1914222;72;21701;-69
2022/05/12 09:43:29;;;;;;;12.63;4.65;;;29.00;99.70;;;;;;1903844;73;21161;-87
2022/05/12 09:46:01;;;;;;;10.23;4.08;;;28.80;99.90;;;;;;1903136;73;21165;-83
2022/05/12 09:48:34;;;;;;;10.90;4.28;;;28.60;99.90;;;;;;1915967;73;21241;-84
2022/05/12 09:51:07;;;;;;;8.83;3.05;;;28.50;99.90;;;;;;1900160;72;21213;-85
2022/05/12 09:53:38;;;;;;;7.70;2.67;;;28.30;99.90;;;;;;1889405;73;21255;-84
2022/05/12 09:56:14;;;;;;;5.78;2.47;;;28.20;99.80;;;;;;1899318;73;21272;-84
2022/05/12 10:08:45;;;;;;;3.85;2.58;;;27.70;99.90;;;;;;1922691;72;21197;-83
2022/05/12 10:11:18;;;;;;;4.47;2.83;;;27.70;99.90;;;;;;1921860;72;21179;-81
2022/05/12 10:13:53;;;;;;;4.45;2.83;;;27.70;99.90;;;;;;1903575;72;21546;-84
2022/05/12 10:16:30;;;;;;;6.25;3.22;;;27.70;99.90;;;;;;1910863;72;21123;-82
2022/05/12 10:19:04;;;;;;;4.83;2.40;;;27.70;99.90;;;;;;1896472;72;21111;-83
2022/05/12 10:21:37;;;;;;;4.33;2.58;;;27.80;99.90;;;;;;1898054;72;21132;-84
2022/05/12 10:24:11;;;;;;;6.03;2.45;;;27.80;99.90;;;;;;1911608;72;21229;-84
2022/05/12 10:26:45;;;;;;;6.22;2.62;;;27.80;99.90;;;;;;1909072;73;21184;-83
2022/05/12 10:29:18;;;;;;;9.08;2.95;;;27.80;99.90;;;;;;1912923;72;21185;-84
2022/05/12 10:31:51;;;;;;;13.75;7.80;;;27.80;99.90;;;;;;1898600;73;21139;-83
2022/05/12 10:34:27;;;;;;;8.43;5.33;;;27.80;99.90;;;;;;1900788;73;21056;-83
2022/05/12 10:37:00;;;;;;;15.68;7.62;;;27.80;99.90;;;;;;1895383;73;21098;-83
2022/05/12 10:39:32;;;;;;;7.28;2.80;;;27.80;99.90;;;;;;1906166;72;21197;-83
2022/05/12 10:42:06;;;;;;;5.25;3.00;;;27.80;99.90;;;;;;1929440;72;21139;-82
2022/05/12 10:44:39;;;;;;;7.33;3.27;;;27.80;99.90;;;;;;1936452;72;21716;-83
2022/05/12 10:47:11;;;;;;;4.87;2.60;;;27.80;99.90;;;;;;1894572;73;21237;-83
2022/05/12 10:49:41;;;;;;;3.58;2.37;;;27.80;99.90;;;;;;1890959;73;21126;-85
2022/05/12 10:52:09;;;;;;;4.50;2.50;;;27.80;99.90;;;;;;1904637;73;21167;-83
2022/05/12 10:54:43;;;;;;;7.75;2.27;;;27.70;99.90;;;;;;1896480;73;21599;-84
2022/05/12 10:57:16;;;;;;;4.47;2.30;;;27.70;99.90;;;;;;1901821;73;21173;-83
2022/05/12 11:02:22;;;;;;;4.03;2.05;;;27.60;99.90;;;;;;1893806;72;21248;-82
2022/05/12 11:04:55;;;;;;;6.95;2.00;;;27.50;99.90;;;;;;1860043;75;21291;-82
2022/05/12 11:07:27;;;;;;;6.65;3.35;;;27.50;99.90;;;;;;1809412;76;21215;-82
2022/05/12 11:10:00;;;;;;;6.15;1.72;;;27.50;99.90;;;;;;1810715;76;21198;-83
2022/05/12 11:12:34;;;;;;;5.15;1.80;;;27.50;99.90;;;;;;1903095;74;21139;-83
2022/05/12 11:15:10;;;;;;;4.15;2.02;;;27.50;99.90;;;;;;1912225;72;21129;-82
2022/05/12 11:17:44;;;;;;;5.58;2.30;;;27.50;99.90;;;;;;1919006;70;21550;-83
2022/05/12 11:20:17;;;;;;;8.45;2.37;;;27.50;99.90;;;;;;1878150;73;21514;-83
2022/05/12 11:22:51;;;;;;;5.42;2.30;;;27.50;99.90;;;;;;1890900;71;21411;-83
2022/05/12 11:25:25;;;;;;;5.05;2.47;;;27.50;99.90;;;;;;1911211;73;21169;-83
2022/05/12 11:29:41;;;;;;;6.22;2.20;;;27.40;99.90;;;;;;1906840;72;21185;-84
2022/05/12 11:35:37;;;;;;;5.90;2.35;;;27.30;99.90;;;;;;1922505;73;21512;-83
2022/05/12 11:38:10;;;;;;;2.50;1.70;;;27.30;99.90;;;;;;1926988;72;21194;-84
2022/05/12 11:40:40;;;;;;;3.92;2.08;;;27.20;99.90;;;;;;1893200;73;21234;-84
2022/05/12 11:45:42;;;;;;;3.77;1.65;;;27.20;99.90;;;;;;1853040;76;21135;-83
2022/05/12 11:48:13;;;;;;;4.85;2.77;;;27.20;99.90;;;;;;1824084;76;21095;-84
2022/05/12 11:50:50;;;;;;;4.03;1.80;;;27.20;99.90;;;;;;1824687;75;21233;-82
2022/05/12 11:53:22;;;;;;;3.72;2.02;;;27.10;99.90;;;;;;1919995;73;21181;-83
2022/05/12 11:55:55;;;;;;;8.25;2.30;;;27.20;99.90;;;;;;1910723;73;21561;-83
2022/05/12 11:58:29;;;;;;;4.35;1.80;;;27.20;99.90;;;;;;1894103;73;21130;-83
2022/05/12 12:01:03;;;;;;;3.42;1.65;;;27.20;99.90;;;;;;1895863;73;21134;-83
2022/05/12 12:03:31;;;;;;;5.10;2.22;;;27.20;99.90;;;;;;1886460;73;21617;-83
2022/05/12 12:06:05;;;;;;;4.12;2.00;;;27.20;99.90;;;;;;1900986;73;21051;-83
2022/05/12 12:08:40;;;;;;;3.08;1.72;;;27.20;99.90;;;;;;1888890;73;21728;-84
2022/05/12 12:11:11;;;;;;;5.37;2.30;;;27.20;99.90;;;;;;1871024;75;21153;-83
2022/05/12 12:13:40;;;;;;;5.10;2.67;;;27.20;99.90;;;;;;1909096;73;21248;-85
2022/05/12 12:16:14;;;;;;;3.50;2.02;;;27.20;99.90;;;;;;1903052;72;21260;-85
2022/05/12 12:18:48;;;;;;;5.47;2.08;;;27.20;99.90;;;;;;1899690;72;21076;-84
2022/05/12 12:21:23;;;;;;;4.15;1.90;;;27.20;99.90;;;;;;1894903;74;21615;-84
2022/05/12 12:23:57;;;;;;;4.80;2.20;;;27.20;99.90;;;;;;1806038;76;21648;-84
2022/05/12 12:26:32;;;;;;;2.60;1.95;;;27.20;99.90;;;;;;1794292;78;21233;-84
2022/05/12 12:29:05;;;;;;;4.10;2.00;;;27.20;99.90;;;;;;1833534;75;21397;-83
2022/05/12 12:31:39;;;;;;;7.85;2.00;;;27.20;99.90;;;;;;1845512;75;21091;-84
2022/05/12 12:34:12;;;;;;;4.50;1.72;;;27.30;99.90;;;;;;1848618;75;21194;-84
2022/05/12 12:36:46;;;;;;;3.98;1.70;;;27.20;99.90;;;;;;1826073;75;21605;-86
2022/05/12 12:39:20;;;;;;;3.30;1.85;;;27.20;99.90;;;;;;1839708;76;21104;-84
2022/05/12 12:41:51;;;;;;;4.75;1.82;;;27.20;99.90;;;;;;1920573;73;21653;-85
2022/05/12 12:44:24;;;;;;;4.78;1.92;;;27.30;99.90;;;;;;1892466;74;21138;-85
2022/05/12 12:46:57;;;;;;;6.28;2.10;;;27.20;99.90;;;;;;1894280;74;21602;-82
2022/05/12 12:57:03;;;;;;;7.10;2.65;;;27.30;99.90;;;;;;1880400;73;21241;-84
2022/05/12 12:59:34;;;;;;;5.90;2.83;;;27.30;99.90;;;;;;1894768;74;21158;-83
2022/05/12 13:02:05;;;;;;;6.05;3.40;;;27.30;99.90;;;;;;1898157;73;21144;-82
2022/05/12 13:04:44;;;;;;;5.70;2.25;;;27.30;99.90;;;;;;1888107;73;21097;-84
2022/05/12 13:07:19;;;;;;;5.03;2.17;;;27.30;99.90;;;;;;1915607;73;21179;-84
2022/05/12 13:09:53;;;;;;;4.50;2.08;;;27.30;99.90;;;;;;1902289;73;21094;-85
2022/05/12 13:12:27;;;;;;;8.23;2.40;;;27.30;99.90;;;;;;1897371;73;21224;-84
2022/05/12 13:15:00;;;;;;;6.22;2.98;;;27.30;99.90;;;;;;1884434;74;21177;-84
2022/05/12 13:17:50;;;;;;;4.75;2.67;;;27.30;99.90;;;;;;1898453;73;21700;-85
2022/05/12 13:20:26;;;;;;;8.25;2.35;;;27.30;99.90;;;;;;1916651;73;21092;-85
2022/05/12 13:22:59;;;;;;;5.28;2.45;;;27.30;99.90;;;;;;1923330;72;21140;-85
2022/05/12 13:25:32;;;;;;;10.90;3.08;;;27.30;99.90;;;;;;1922686;72;21147;-84
2022/05/12 13:30:36;;;;;;;5.80;3.37;;;27.20;99.90;;;;;;1827423;77;21126;-81
2022/05/12 13:33:09;;;;;;;4.00;2.35;;;27.20;99.90;;;;;;1835882;76;21115;-81
2022/05/12 13:35:45;;;;;;;4.90;2.10;;;27.20;99.90;;;;;;1842937;74;21201;-81
2022/05/12 13:38:19;;;;;;;6.25;2.30;;;27.10;99.90;;;;;;1828679;74;21385;-81
2022/05/12 13:40:54;;;;;;;5.60;2.22;;;27.10;99.90;;;;;;1838726;73;21691;-82
2022/05/12 13:43:27;;;;;;;7.80;2.92;;;27.00;99.90;;;;;;1836785;74;21237;-82
2022/05/12 13:46:01;;;;;;;6.78;2.50;;;27.00;99.90;;;;;;1903939;73;21130;-82
2022/05/12 13:48:33;;;;;;;8.98;2.95;;;27.00;99.90;;;;;;1883767;72;21716;-81
2022/05/12 13:51:04;;;;;;;6.35;2.33;;;27.00;99.90;;;;;;1913420;73;21717;-81
2022/05/12 13:53:39;;;;;;;6.12;2.52;;;27.00;99.90;;;;;;1893089;73;21092;-81
2022/05/12 13:58:45;;;;;;;7.28;2.60;;;26.90;99.90;;;;;;1893625;73;21142;-82
2022/05/12 14:01:18;;;;;;;6.28;2.70;;;26.90;99.90;;;;;;1923591;73;21735;-81
2022/05/12 14:03:52;;;;;;;9.55;3.15;;;26.90;99.90;;;;;;1905500;73;21151;-81
2022/05/12 14:06:28;;;;;;;6.10;3.62;;;26.90;99.90;;;;;;1895981;73;21131;-81